Главная страница
METAR-TAF:

METAR-TAF

Аэропорты :

Вестерланд, Германия

широта: 54-55N, долгота: 008-21E, высота над уровнем моря: 16 м

Текущие метеонаблюдения

Эта сводка был подготовлена 5 часа и 54 минут назад, в 17:20 UTC
Ветер 10 Узел от западный-юго-западный
Температура 13°C
Влажность 82%
Давление 1015 hPa
Видимость 10 км и более
Нет облачности ниже 1500 м, и нет кучево-дождевой облачности

METAR: EDXW 231720Z 25010KT CAVOK 13/10 Q1015

Время: 01:14 (23:14 UTC)

Прогноз

Эта сводка был подготовлена 6 часа и 14 минут назад, в 17:00 UTC
Прогноз действительный с 23-го 18 UTC до 23-го 21 UTC
Ветер 9 Узел от западный-юго-западный
Видимость 10 км и более
Нет облачности ниже 1500 м, и нет кучево-дождевой облачности

TAF: EDXW 231700Z 2318/2321 24009KT CAVOK

Метеонаблюдения и прогнозы для более 4000 аэропортов (сводки METAR и TAF).

Имеющиеся станции представлены на карте желтыми и красными точками.

Чтобы увидеть название станции, наведите на нее мышь.

Затем щелкните, чтобы увидеть метеонаблюдения и метеопрогнозы.

Управление картой: чтобы увеличить масштаб, щелкните зеленые кнопки с черным крестиком; чтобы уменьшить масштаб, щелкните зеленую кнопку с тире; для просмотра соседних карт щелкайте зеленые стрелки.


METAR-TAF: